Time;durP1;ratioP1;P1;durP2;ratioP2;P2;SDS_P1;SDS_P2;PMS_P1;PMS_P2;Temp;Humidity;BMP_temperature;BMP_pressure;BME280_temperature;BME280_humidity;BME280_pressure;Samples;Min_cycle;Max_cycle;Signal;HPM_P1;HPM_P2
2024/02/08 00:02:14;;;;;;;2.10;1.80;;;;;;;;;;5024734;28;58892;-70
2024/02/08 00:04:40;;;;;;;2.00;1.90;;;;;;;;;;5025442;28;58434;-70
2024/02/08 00:07:05;;;;;;;3.40;2.40;;;;;;;;;;5025463;28;59339;-70
2024/02/08 00:09:30;;;;;;;2.00;1.80;;;;;;;;;;5024437;28;58516;-71
2024/02/08 00:11:55;;;;;;;2.83;1.70;;;;;;;;;;5024075;28;59607;-71
2024/02/08 00:14:23;;;;;;;2.13;1.60;;;;;;;;;;5025450;28;59400;-70
2024/02/08 00:16:48;;;;;;;2.55;1.67;;;;;;;;;;5026797;28;58415;-72
2024/02/08 00:19:15;;;;;;;2.47;2.10;;;;;;;;;;5024933;28;58958;-72
2024/02/08 00:21:40;;;;;;;2.60;2.10;;;;;;;;;;5024826;28;59508;-72
2024/02/08 00:24:06;;;;;;;4.63;2.13;;;;;;;;;;5024817;28;58564;-72
2024/02/08 00:26:31;;;;;;;4.33;2.30;;;;;;;;;;5024973;28;59508;-72
2024/02/08 00:28:56;;;;;;;3.20;1.90;;;;;;;;;;5022425;28;59591;-72
2024/02/08 00:31:21;;;;;;;2.05;1.63;;;;;;;;;;5024839;28;58421;-72
2024/02/08 00:33:48;;;;;;;1.90;1.45;;;;;;;;;;5023982;28;59685;-72
2024/02/08 00:36:15;;;;;;;2.85;1.77;;;;;;;;;;5024635;28;58913;-72
2024/02/08 00:38:40;;;;;;;3.00;2.22;;;;;;;;;;5023966;28;59309;-71
2024/02/08 00:41:05;;;;;;;2.57;1.93;;;;;;;;;;5022288;28;59945;-73
2024/02/08 00:43:31;;;;;;;1.83;1.42;;;;;;;;;;5024026;28;58517;-70
2024/02/08 00:45:56;;;;;;;1.63;1.40;;;;;;;;;;5024477;28;59684;-73
2024/02/08 00:48:22;;;;;;;4.07;1.47;;;;;;;;;;5025299;28;58825;-70
2024/02/08 00:50:47;;;;;;;2.92;2.28;;;;;;;;;;5025144;28;58387;-71
2024/02/08 00:53:13;;;;;;;1.67;1.53;;;;;;;;;;5027081;28;59198;-72
2024/02/08 00:55:38;;;;;;;2.10;1.90;;;;;;;;;;5024580;28;58633;-70
2024/02/08 00:58:04;;;;;;;2.85;1.75;;;;;;;;;;5027998;28;58306;-70
2024/02/08 01:00:37;;;;;;;2.50;2.27;;;;;;;;;;5024218;28;58775;-70
2024/02/08 01:03:02;;;;;;;3.45;2.00;;;;;;;;;;5024545;28;58400;-72
2024/02/08 01:05:27;;;;;;;2.07;1.70;;;;;;;;;;5024828;28;59698;-70
2024/02/08 01:07:52;;;;;;;2.58;2.03;;;;;;;;;;5024927;28;58608;-73
2024/02/08 01:10:17;;;;;;;2.30;1.80;;;;;;;;;;5026673;28;58619;-70
2024/02/08 01:12:43;;;;;;;2.70;1.97;;;;;;;;;;5025122;28;58633;-72
2024/02/08 01:15:11;;;;;;;2.80;1.87;;;;;;;;;;5025284;28;59186;-72
2024/02/08 01:17:36;;;;;;;4.28;2.05;;;;;;;;;;5026198;28;58526;-73
2024/02/08 01:20:01;;;;;;;2.92;1.73;;;;;;;;;;5024831;28;59209;-71
2024/02/08 01:22:26;;;;;;;2.40;2.20;;;;;;;;;;5025845;28;58404;-70
2024/02/08 01:24:52;;;;;;;2.50;1.90;;;;;;;;;;5024610;28;59591;-70
2024/02/08 01:27:20;;;;;;;2.58;2.28;;;;;;;;;;5024743;28;58404;-69
2024/02/08 01:29:45;;;;;;;;;;;;;;;;;;5025475;28;58536;-69
2024/02/08 01:32:15;;;;;;;3.30;1.85;;;;;;;;;;5024788;28;58430;-69
2024/02/08 01:34:40;;;;;;;3.03;1.88;;;;;;;;;;5023684;28;59261;-69
2024/02/08 01:37:06;;;;;;;2.28;1.60;;;;;;;;;;5025650;28;58522;-69
2024/02/08 01:39:31;;;;;;;2.53;1.73;;;;;;;;;;5024148;28;59375;-69
2024/02/08 01:41:58;;;;;;;2.35;2.00;;;;;;;;;;5022887;28;58513;-69
2024/02/08 01:44:23;;;;;;;3.25;2.00;;;;;;;;;;5023640;28;59709;-69
2024/02/08 01:46:48;;;;;;;2.63;1.90;;;;;;;;;;5021037;28;58342;-70
2024/02/08 01:49:20;;;;;;;1.67;1.45;;;;;;;;;;5024178;28;58363;-69
2024/02/08 01:51:45;;;;;;;2.15;1.48;;;;;;;;;;5024394;28;59557;-69
2024/02/08 01:54:12;;;;;;;2.78;2.00;;;;;;;;;;5022569;28;58464;-69
2024/02/08 01:56:41;;;;;;;2.35;1.90;;;;;;;;;;5023788;28;58459;-69
2024/02/08 01:59:06;;;;;;;2.67;2.05;;;;;;;;;;5022458;28;60844;-69
2024/02/08 02:01:32;;;;;;;3.67;1.90;;;;;;;;;;5024232;28;58811;-69
2024/02/08 02:03:57;;;;;;;2.13;1.85;;;;;;;;;;5025553;28;58126;-69
2024/02/08 02:06:22;;;;;;;1.50;1.40;;;;;;;;;;5022199;28;58462;-69
2024/02/08 02:08:57;;;;;;;2.05;1.92;;;;;;;;;;5024014;28;58408;-69
2024/02/08 02:11:28;;;;;;;3.13;1.70;;;;;;;;;;5020594;28;58625;-69
2024/02/08 02:13:54;;;;;;;2.40;1.98;;;;;;;;;;5022331;28;58934;-68
2024/02/08 02:16:23;;;;;;;2.28;1.95;;;;;;;;;;5008465;28;58408;-69
2024/02/08 02:18:48;;;;;;;;;;;;;;;;;;5025643;28;58714;-69
2024/02/08 02:21:17;;;;;;;2.22;1.75;;;;;;;;;;5024287;28;58408;-69
2024/02/08 02:23:42;;;;;;;1.92;1.67;;;;;;;;;;5024016;28;58446;-69
2024/02/08 02:26:08;;;;;;;3.72;2.35;;;;;;;;;;5023537;28;58951;-69
2024/02/08 02:28:33;;;;;;;1.80;1.52;;;;;;;;;;5024570;28;58510;-70
2024/02/08 02:30:59;;;;;;;1.67;1.55;;;;;;;;;;5004358;28;58545;-71
2024/02/08 02:33:25;;;;;;;2.33;2.13;;;;;;;;;;5023395;28;58534;-71
2024/02/08 02:35:51;;;;;;;3.28;1.88;;;;;;;;;;5006578;28;58554;-71
2024/02/08 02:38:17;;;;;;;3.35;2.25;;;;;;;;;;5023592;28;61324;-71
2024/02/08 02:40:42;;;;;;;1.77;1.67;;;;;;;;;;5022450;28;58655;-70
2024/02/08 02:43:13;;;;;;;1.30;1.20;;;;;;;;;;5022625;28;58551;-71
2024/02/08 02:45:38;;;;;;;1.98;1.70;;;;;;;;;;5025841;28;59468;-72
2024/02/08 02:48:04;;;;;;;2.40;2.13;;;;;;;;;;5022299;28;58616;-72
2024/02/08 02:50:29;;;;;;;1.83;1.52;;;;;;;;;;5023458;28;58547;-72
2024/02/08 02:52:54;;;;;;;3.03;1.43;;;;;;;;;;5023195;28;58376;-72
2024/02/08 02:55:20;;;;;;;1.63;1.40;;;;;;;;;;5023447;28;58422;-72
2024/02/08 02:57:45;;;;;;;2.42;2.15;;;;;;;;;;5023182;28;60188;-72
2024/02/08 03:00:33;;;;;;;1.60;1.30;;;;;;;;;;5022925;28;58811;-72
2024/02/08 03:02:58;;;;;;;1.80;1.52;;;;;;;;;;5023528;28;58490;-72
2024/02/08 03:05:24;;;;;;;2.00;1.80;;;;;;;;;;5022767;28;58407;-72
2024/02/08 03:07:50;;;;;;;1.27;1.13;;;;;;;;;;5022290;28;58900;-71
2024/02/08 03:10:22;;;;;;;2.20;1.77;;;;;;;;;;5022824;28;59987;-70
2024/02/08 03:12:49;;;;;;;2.03;1.80;;;;;;;;;;5022029;28;58953;-70
2024/02/08 03:15:16;;;;;;;3.00;1.80;;;;;;;;;;5023765;28;58404;-70
2024/02/08 03:17:41;;;;;;;2.13;1.27;;;;;;;;;;5023304;28;58478;-70
2024/02/08 03:20:08;;;;;;;2.15;1.95;;;;;;;;;;5024137;28;58434;-70
2024/02/08 03:22:34;;;;;;;1.90;1.70;;;;;;;;;;5027767;28;58507;-70
2024/02/08 03:25:00;;;;;;;2.00;1.60;;;;;;;;;;5026470;28;59502;-70
2024/02/08 03:27:25;;;;;;;4.18;1.65;;;;;;;;;;5027359;28;58379;-70
2024/02/08 03:29:53;;;;;;;2.47;1.90;;;;;;;;;;5027590;28;58520;-71
2024/02/08 03:32:21;;;;;;;2.20;1.83;;;;;;;;;;5025217;28;58930;-70
2024/02/08 03:34:46;;;;;;;1.90;1.43;;;;;;;;;;5028484;28;58274;-72
2024/02/08 03:37:11;;;;;;;1.77;1.40;;;;;;;;;;5026020;28;60878;-71
2024/02/08 03:39:37;;;;;;;1.60;1.43;;;;;;;;;;5025286;28;58415;-68
2024/02/08 03:42:06;;;;;;;1.65;1.52;;;;;;;;;;5026675;28;58357;-71
2024/02/08 03:44:33;;;;;;;2.50;1.40;;;;;;;;;;5024218;28;58915;-71
2024/02/08 03:47:07;;;;;;;1.85;1.70;;;;;;;;;;5025321;28;58986;-68
2024/02/08 03:49:32;;;;;;;2.67;1.73;;;;;;;;;;5026646;28;58454;-68
2024/02/08 03:51:57;;;;;;;2.80;1.63;;;;;;;;;;5024198;28;58475;-69
2024/02/08 03:54:24;;;;;;;1.88;1.70;;;;;;;;;;5026239;28;58495;-68
2024/02/08 03:56:50;;;;;;;3.15;2.22;;;;;;;;;;5026440;28;58788;-68
2024/02/08 03:59:26;;;;;;;1.65;1.55;;;;;;;;;;5025774;28;58461;-68
2024/02/08 04:02:00;;;;;;;2.75;2.20;;;;;;;;;;5026943;28;58489;-68
2024/02/08 04:04:29;;;;;;;3.05;1.90;;;;;;;;;;5027369;28;59422;-68
2024/02/08 04:09:39;;;;;;;2.22;1.58;;;;;;;;;;5025685;28;58469;-68
2024/02/08 04:56:08;;;;;;;1.35;1.05;;;;;;;;;;5024513;28;58432;-71
2024/02/08 04:58:34;;;;;;;1.83;1.65;;;;;;;;;;5024578;28;59654;-70
2024/02/08 05:01:01;;;;;;;1.50;1.35;;;;;;;;;;5025321;28;58489;-72
2024/02/08 05:03:26;;;;;;;1.60;1.10;;;;;;;;;;5023295;28;59678;-72
2024/02/08 05:05:54;;;;;;;1.83;1.63;;;;;;;;;;5024603;28;57876;-73
2024/02/08 05:08:19;;;;;;;2.10;1.70;;;;;;;;;;5025281;28;59552;-72
2024/02/08 05:10:44;;;;;;;1.40;1.27;;;;;;;;;;5024064;28;59079;-70
2024/02/08 05:13:11;;;;;;;1.92;1.45;;;;;;;;;;5023916;28;58481;-73
2024/02/08 05:15:36;;;;;;;1.65;1.35;;;;;;;;;;5025520;28;59727;-72
2024/02/08 05:18:01;;;;;;;1.50;1.17;;;;;;;;;;5024309;28;58672;-73
2024/02/08 05:20:29;;;;;;;1.33;1.23;;;;;;;;;;5024972;28;58434;-72
2024/02/08 05:22:56;;;;;;;1.77;1.17;;;;;;;;;;5025038;28;59185;-72
2024/02/08 05:25:22;;;;;;;2.57;1.80;;;;;;;;;;5021424;28;59197;-72
2024/02/08 05:27:47;;;;;;;1.42;1.33;;;;;;;;;;5023189;28;58341;-73
2024/02/08 05:30:14;;;;;;;2.00;1.20;;;;;;;;;;5023346;28;58959;-73
2024/02/08 05:32:40;;;;;;;2.58;1.63;;;;;;;;;;5022344;28;58414;-73
2024/02/08 05:35:05;;;;;;;1.30;1.20;;;;;;;;;;5023884;28;59438;-73
2024/02/08 05:37:31;;;;;;;1.23;1.00;;;;;;;;;;5023323;28;59096;-72
2024/02/08 05:39:57;;;;;;;2.42;1.40;;;;;;;;;;5023503;28;58316;-74
2024/02/08 05:42:24;;;;;;;2.45;1.70;;;;;;;;;;5021611;28;59111;-74
2024/02/08 05:44:49;;;;;;;3.95;1.85;;;;;;;;;;5023798;28;59104;-74
2024/02/08 05:47:15;;;;;;;3.03;1.88;;;;;;;;;;5023013;28;58962;-74
2024/02/08 05:49:48;;;;;;;2.97;1.70;;;;;;;;;;5022195;28;58924;-74
2024/02/08 05:52:14;;;;;;;3.33;1.35;;;;;;;;;;5025254;28;58516;-74
2024/02/08 05:54:45;;;;;;;6.28;1.38;;;;;;;;;;5025284;28;58416;-75
2024/02/08 05:57:12;;;;;;;1.88;1.27;;;;;;;;;;5020114;28;58894;-72
2024/02/08 05:59:37;;;;;;;1.95;1.33;;;;;;;;;;5023637;28;58480;-69
2024/02/08 06:02:13;;;;;;;1.98;1.70;;;;;;;;;;5021928;28;58561;-71
2024/02/08 06:04:40;;;;;;;1.27;1.02;;;;;;;;;;5021517;28;59828;-71
2024/02/08 06:07:06;;;;;;;2.05;1.63;;;;;;;;;;5024423;28;58202;-73
2024/02/08 06:12:42;;;;;;;3.35;1.75;;;;;;;;;;5021371;28;58421;-72
2024/02/08 06:15:32;;;;;;;7.22;2.55;;;;;;;;;;5022604;28;59699;-72
2024/02/08 06:18:00;;;;;;;3.05;1.60;;;;;;;;;;5022198;28;58493;-73
2024/02/08 06:20:33;;;;;;;4.38;1.85;;;;;;;;;;5022515;28;58500;-72
2024/02/08 06:23:16;;;;;;;4.10;2.30;;;;;;;;;;5022228;28;58620;-72
2024/02/08 06:25:45;;;;;;;5.07;2.58;;;;;;;;;;5023043;28;59865;-72
2024/02/08 06:28:11;;;;;;;2.63;1.38;;;;;;;;;;5025531;28;58245;-73
2024/02/08 06:30:36;;;;;;;7.93;2.03;;;;;;;;;;5022882;28;60244;-73
2024/02/08 06:33:10;;;;;;;5.40;1.77;;;;;;;;;;5023875;28;58162;-73
2024/02/08 06:35:39;;;;;;;4.10;1.80;;;;;;;;;;5022229;28;60397;-72
2024/02/08 06:38:08;;;;;;;2.72;1.80;;;;;;;;;;5021926;28;58488;-72
2024/02/08 06:40:37;;;;;;;5.68;2.15;;;;;;;;;;5022929;28;58531;-73
2024/02/08 07:37:36;;;;;;;4.75;1.90;;;;;;;;;;5026016;28;62568;-71
2024/02/08 07:40:01;;;;;;;1.75;1.40;;;;;;;;;;5026539;28;58435;-71
2024/02/08 07:42:32;;;;;;;2.80;1.13;;;;;;;;;;5007150;28;60401;-71
2024/02/08 07:44:57;;;;;;;3.05;1.20;;;;;;;;;;5025256;28;58512;-72
2024/02/08 07:47:24;;;;;;;2.95;1.80;;;;;;;;;;5026249;28;59447;-71
2024/02/08 07:49:57;;;;;;;2.55;1.20;;;;;;;;;;5026868;28;59043;-71
2024/02/08 07:52:22;;;;;;;1.63;1.30;;;;;;;;;;5024901;28;58465;-71
2024/02/08 07:54:56;;;;;;;2.40;1.55;;;;;;;;;;5025901;28;58506;-68
2024/02/08 07:57:25;;;;;;;4.90;1.65;;;;;;;;;;5025388;28;59051;-72
2024/02/08 07:59:52;;;;;;;3.08;1.30;;;;;;;;;;5026832;28;58521;-71
2024/02/08 08:02:19;;;;;;;2.63;1.70;;;;;;;;;;5026520;28;59843;-71
2024/02/08 08:04:51;;;;;;;2.93;1.30;;;;;;;;;;5027246;28;58471;-71
2024/02/08 08:07:22;;;;;;;1.95;1.25;;;;;;;;;;5027775;28;63167;-72
2024/02/08 08:09:52;;;;;;;3.25;1.02;;;;;;;;;;5021733;28;58329;-70
2024/02/08 08:12:22;;;;;;;2.80;1.35;;;;;;;;;;5025633;28;58462;-71
2024/02/08 08:19:53;;;;;;;1.83;1.42;;;;;;;;;;5026446;28;58444;-71
2024/02/08 08:22:18;;;;;;;2.57;1.73;;;;;;;;;;5025583;28;59633;-71
2024/02/08 08:25:28;;;;;;;4.10;2.00;;;;;;;;;;5026533;28;58341;-71
2024/02/08 08:27:47;;;;;;;2.22;1.38;;;;;;;;;;5023646;28;59159;-71
2024/02/08 08:30:28;;;;;;;1.30;1.20;;;;;;;;;;5024094;28;59120;-71
2024/02/08 08:33:07;;;;;;;2.78;1.65;;;;;;;;;;5022798;28;58525;-71
2024/02/08 08:35:47;;;;;;;1.45;1.33;;;;;;;;;;5026122;28;60377;-71
2024/02/08 08:40:47;;;;;;;2.63;1.15;;;;;;;;;;5026158;28;58496;-71
2024/02/08 08:43:19;;;;;;;2.65;1.40;;;;;;;;;;5024538;28;60398;-71
2024/02/08 08:45:50;;;;;;;1.90;1.50;;;;;;;;;;5026281;28;58720;-71
2024/02/08 08:48:17;;;;;;;2.55;1.55;;;;;;;;;;5025730;28;59918;-71
2024/02/08 08:50:49;;;;;;;3.15;1.15;;;;;;;;;;5025703;28;58534;-72
2024/02/08 08:53:19;;;;;;;1.80;1.40;;;;;;;;;;5024670;28;58258;-71
2024/02/08 08:55:49;;;;;;;1.75;1.65;;;;;;;;;;5023781;28;58584;-71
2024/02/08 08:58:14;;;;;;;1.65;1.00;;;;;;;;;;5024977;28;63545;-71
2024/02/08 09:00:46;;;;;;;1.30;0.87;;;;;;;;;;5025069;28;58459;-71
2024/02/08 09:03:25;;;;;;;3.20;1.23;;;;;;;;;;5025189;28;59710;-71
2024/02/08 09:05:50;;;;;;;1.35;1.20;;;;;;;;;;5023177;28;59061;-71
2024/02/08 09:08:21;;;;;;;2.85;1.23;;;;;;;;;;5025797;28;58508;-71
2024/02/08 09:10:49;;;;;;;2.92;1.67;;;;;;;;;;5024504;28;58503;-71
2024/02/08 09:13:18;;;;;;;1.83;1.50;;;;;;;;;;5025880;28;58547;-71
2024/02/08 09:21:19;;;;;;;1.95;1.50;;;;;;;;;;5025321;28;57845;-71
2024/02/08 09:23:44;;;;;;;1.63;1.10;;;;;;;;;;5023903;28;59823;-71
2024/02/08 09:26:11;;;;;;;1.43;1.00;;;;;;;;;;5024053;28;58982;-71
2024/02/08 09:28:42;;;;;;;1.55;1.23;;;;;;;;;;5025480;28;58242;-72
2024/02/08 09:31:17;;;;;;;1.88;0.80;;;;;;;;;;5024487;28;59683;-72
2024/02/08 09:33:45;;;;;;;1.77;1.02;;;;;;;;;;5025626;28;58480;-73
2024/02/08 09:36:14;;;;;;;1.48;1.00;;;;;;;;;;5022180;28;60207;-72
2024/02/08 09:38:43;;;;;;;1.30;1.20;;;;;;;;;;5024852;28;58257;-70
2024/02/08 09:41:09;;;;;;;1.42;1.23;;;;;;;;;;5023167;28;58496;-70
2024/02/08 09:43:34;;;;;;;1.30;1.17;;;;;;;;;;5024087;28;58506;-70
2024/02/08 09:46:10;;;;;;;2.70;1.23;;;;;;;;;;5024221;28;58265;-71
2024/02/08 09:48:51;;;;;;;1.52;1.42;;;;;;;;;;5025595;28;58520;-71
2024/02/08 09:51:24;;;;;;;1.92;1.42;;;;;;;;;;5025061;28;59338;-71
2024/02/08 09:53:54;;;;;;;2.13;1.65;;;;;;;;;;5023938;28;58959;-70
2024/02/08 09:56:28;;;;;;;2.70;1.23;;;;;;;;;;5022849;28;60328;-71
2024/02/08 09:59:02;;;;;;;1.48;0.93;;;;;;;;;;5023712;28;60632;-70
2024/02/08 10:01:35;;;;;;;1.50;1.40;;;;;;;;;;5025403;28;58313;-70
2024/02/08 10:04:14;;;;;;;1.35;1.05;;;;;;;;;;5024974;28;59321;-70
2024/02/08 10:06:53;;;;;;;1.42;1.33;;;;;;;;;;5023832;28;58936;-70
2024/02/08 10:09:40;;;;;;;0.85;0.80;;;;;;;;;;5022055;28;59695;-70
2024/02/08 10:12:11;;;;;;;0.87;0.80;;;;;;;;;;5023499;28;59528;-70
2024/02/08 10:14:41;;;;;;;1.90;1.52;;;;;;;;;;5024383;28;58770;-71
2024/02/08 10:17:24;;;;;;;2.63;1.38;;;;;;;;;;5021746;28;58353;-71
2024/02/08 10:20:31;;;;;;;1.00;0.85;;;;;;;;;;5023340;28;59377;-71
2024/02/08 10:22:43;;;;;;;;;;;;;;;;;;5025592;28;58484;-70
2024/02/08 10:27:55;;;;;;;1.30;1.20;;;;;;;;;;5022336;28;58734;-70
2024/02/08 10:30:25;;;;;;;0.73;0.70;;;;;;;;;;5024359;28;58391;-71
2024/02/08 10:32:51;;;;;;;1.15;0.90;;;;;;;;;;5024703;28;59847;-70
2024/02/08 10:35:21;;;;;;;1.15;1.05;;;;;;;;;;5022270;28;58910;-70
2024/02/08 10:37:47;;;;;;;0.80;0.80;;;;;;;;;;5025307;28;58502;-72
2024/02/08 10:40:32;;;;;;;1.75;1.00;;;;;;;;;;5024480;28;59189;-73
2024/02/08 10:43:02;;;;;;;1.77;1.33;;;;;;;;;;5020104;28;58551;-73
2024/02/08 10:45:32;;;;;;;2.38;1.38;;;;;;;;;;5023249;28;60382;-72
2024/02/08 10:47:59;;;;;;;1.10;1.05;;;;;;;;;;5021195;28;58994;-71
2024/02/08 10:50:27;;;;;;;1.77;1.40;;;;;;;;;;5022543;28;58379;-71
2024/02/08 10:52:54;;;;;;;1.60;1.10;;;;;;;;;;5022630;28;59388;-71
2024/02/08 10:55:30;;;;;;;1.15;1.05;;;;;;;;;;5024222;28;60486;-71
2024/02/08 10:58:20;;;;;;;1.10;1.02;;;;;;;;;;5023201;28;58460;-70
2024/02/08 11:03:33;;;;;;;1.58;1.10;;;;;;;;;;5023708;28;58461;-71
2024/02/08 11:08:32;;;;;;;1.08;0.93;;;;;;;;;;5021565;28;58976;-71
2024/02/08 11:11:00;;;;;;;1.75;0.85;;;;;;;;;;5022627;28;58386;-71
2024/02/08 11:13:29;;;;;;;1.33;1.15;;;;;;;;;;5024659;28;59869;-71
2024/02/08 11:15:56;;;;;;;1.40;0.90;;;;;;;;;;5023704;28;58961;-71
2024/02/08 11:18:35;;;;;;;1.93;1.13;;;;;;;;;;5023039;28;58409;-71
2024/02/08 11:21:12;;;;;;;0.70;0.70;;;;;;;;;;5021324;28;60350;-71
2024/02/08 11:23:45;;;;;;;1.30;1.10;;;;;;;;;;5022382;28;58996;-71
2024/02/08 11:26:10;;;;;;;1.23;0.75;;;;;;;;;;5022421;28;58585;-71
2024/02/08 11:28:47;;;;;;;1.10;0.90;;;;;;;;;;5023727;28;59756;-71
2024/02/08 11:31:13;;;;;;;0.68;0.57;;;;;;;;;;5025438;28;58487;-71
2024/02/08 11:33:42;;;;;;;1.35;0.95;;;;;;;;;;5023536;28;59658;-71
2024/02/08 11:36:13;;;;;;;1.35;1.25;;;;;;;;;;5023719;28;59944;-71
2024/02/08 11:38:57;;;;;;;1.75;1.10;;;;;;;;;;5024077;28;58511;-71
2024/02/08 11:41:25;;;;;;;1.05;0.75;;;;;;;;;;5023463;28;60285;-71
2024/02/08 11:44:03;;;;;;;1.95;1.10;;;;;;;;;;5026268;28;59400;-71
2024/02/08 11:46:37;;;;;;;1.67;1.58;;;;;;;;;;5025967;28;58471;-70
2024/02/08 11:49:14;;;;;;;1.20;0.90;;;;;;;;;;5026230;28;59048;-71
2024/02/08 11:51:41;;;;;;;1.08;0.90;;;;;;;;;;5026728;28;57839;-71
2024/02/08 11:54:09;;;;;;;1.08;0.98;;;;;;;;;;5026787;28;58805;-71
2024/02/08 11:56:34;;;;;;;1.17;1.10;;;;;;;;;;5026101;28;58606;-71
2024/02/08 11:59:04;;;;;;;1.20;0.95;;;;;;;;;;5027988;28;58193;-71
2024/02/08 12:01:32;;;;;;;1.45;1.00;;;;;;;;;;5028472;28;59518;-71
2024/02/08 12:03:58;;;;;;;1.58;0.88;;;;;;;;;;5024071;28;60288;-71
2024/02/08 12:06:23;;;;;;;1.65;1.10;;;;;;;;;;5026482;28;58952;-71
2024/02/08 12:08:57;;;;;;;1.40;1.30;;;;;;;;;;5025360;28;59452;-71
2024/02/08 12:11:22;;;;;;;1.63;1.05;;;;;;;;;;5026954;28;58589;-71
2024/02/08 12:13:47;;;;;;;1.27;0.68;;;;;;;;;;5024872;28;59429;-71
2024/02/08 12:16:14;;;;;;;1.83;1.13;;;;;;;;;;5024946;28;59282;-71
2024/02/08 12:18:39;;;;;;;1.25;1.02;;;;;;;;;;5026616;28;58002;-71
2024/02/08 12:21:08;;;;;;;1.67;1.00;;;;;;;;;;5025366;28;59409;-71
2024/02/08 12:23:35;;;;;;;1.30;0.90;;;;;;;;;;5025397;28;59081;-71
2024/02/08 12:26:02;;;;;;;1.13;1.00;;;;;;;;;;5026121;28;58475;-71
2024/02/08 12:28:31;;;;;;;2.60;1.67;;;;;;;;;;5026163;28;60197;-71
2024/02/08 12:31:00;;;;;;;1.55;0.90;;;;;;;;;;5026098;28;58439;-71
2024/02/08 12:33:26;;;;;;;;;;;;;;;;;;5026550;28;58578;-71
2024/02/08 12:35:51;;;;;;;2.50;1.38;;;;;;;;;;5025703;28;58851;-71
2024/02/08 12:38:21;;;;;;;1.33;1.17;;;;;;;;;;5025600;28;58666;-71
2024/02/08 12:40:47;;;;;;;0.90;0.90;;;;;;;;;;5028029;28;59898;-71
2024/02/08 12:43:13;;;;;;;1.38;0.80;;;;;;;;;;5024971;28;59073;-71
2024/02/08 12:45:38;;;;;;;0.75;0.68;;;;;;;;;;5025789;28;59261;-72
2024/02/08 12:48:04;;;;;;;1.03;0.97;;;;;;;;;;5022594;28;59477;-71
2024/02/08 12:50:34;;;;;;;1.00;0.88;;;;;;;;;;5025895;28;58531;-71
2024/02/08 12:52:59;;;;;;;0.77;0.77;;;;;;;;;;5023896;28;59719;-71
2024/02/08 12:55:29;;;;;;;0.70;0.70;;;;;;;;;;5018986;28;58656;-71
2024/02/08 12:57:58;;;;;;;3.75;1.50;;;;;;;;;;5020112;28;58334;-72
2024/02/08 13:00:26;;;;;;;5.60;1.05;;;;;;;;;;5022541;28;59681;-72
2024/02/08 13:02:55;;;;;;;7.10;1.95;;;;;;;;;;5021740;28;60713;-72
2024/02/08 13:05:22;;;;;;;2.58;1.77;;;;;;;;;;5025397;28;58674;-72
2024/02/08 13:07:56;;;;;;;5.75;1.50;;;;;;;;;;5022820;28;59597;-72
2024/02/08 13:10:24;;;;;;;8.32;1.45;;;;;;;;;;5020145;28;63310;-71
2024/02/08 13:12:57;;;;;;;3.47;1.20;;;;;;;;;;5022509;28;58567;-71
2024/02/08 13:15:22;;;;;;;4.88;1.45;;;;;;;;;;5024156;28;58414;-72
2024/02/08 13:17:47;;;;;;;5.47;1.10;;;;;;;;;;5025038;28;58334;-73
2024/02/08 13:20:12;;;;;;;4.73;1.70;;;;;;;;;;5025277;28;60305;-74
2024/02/08 13:22:38;;;;;;;4.57;1.17;;;;;;;;;;5023258;28;59323;-71
2024/02/08 13:25:06;;;;;;;3.20;1.20;;;;;;;;;;5024983;28;58421;-72
2024/02/08 13:27:31;;;;;;;5.17;1.40;;;;;;;;;;5021929;28;59486;-71
2024/02/08 13:29:57;;;;;;;4.63;1.60;;;;;;;;;;5023752;28;59711;-72
2024/02/08 13:32:25;;;;;;;1.50;1.13;;;;;;;;;;5023753;28;58396;-71
2024/02/08 13:34:51;;;;;;;3.75;1.15;;;;;;;;;;5024276;28;60459;-71
2024/02/08 13:37:16;;;;;;;8.38;1.63;;;;;;;;;;5028471;28;58426;-71
2024/02/08 13:39:42;;;;;;;2.75;1.42;;;;;;;;;;5025815;28;59264;-72
2024/02/08 13:42:09;;;;;;;1.85;1.15;;;;;;;;;;5023303;28;59696;-71
2024/02/08 13:44:34;;;;;;;2.85;1.15;;;;;;;;;;5022762;28;58371;-71
2024/02/08 13:46:59;;;;;;;5.40;1.25;;;;;;;;;;5023678;28;59120;-72
2024/02/08 13:49:25;;;;;;;4.57;1.43;;;;;;;;;;5023442;28;59067;-71
2024/02/08 13:51:50;;;;;;;5.07;1.20;;;;;;;;;;5023564;28;58327;-71
2024/02/08 13:54:16;;;;;;;6.72;1.40;;;;;;;;;;5023193;28;60250;-71
2024/02/08 13:56:41;;;;;;;4.45;1.67;;;;;;;;;;5022753;28;58547;-71
2024/02/08 13:59:06;;;;;;;5.93;1.27;;;;;;;;;;5023364;28;60271;-71
2024/02/08 14:01:32;;;;;;;2.53;1.00;;;;;;;;;;5022635;28;58672;-72
2024/02/08 14:03:58;;;;;;;3.28;1.45;;;;;;;;;;5024160;28;58071;-72
2024/02/08 14:06:25;;;;;;;4.07;1.77;;;;;;;;;;5024642;28;59431;-72
2024/02/08 14:08:54;;;;;;;1.30;0.95;;;;;;;;;;5023733;28;59008;-72
2024/02/08 14:11:21;;;;;;;3.90;1.20;;;;;;;;;;5024643;28;58365;-73
2024/02/08 14:13:49;;;;;;;4.73;1.13;;;;;;;;;;5023926;28;59739;-71
2024/02/08 14:16:15;;;;;;;1.70;1.10;;;;;;;;;;5022161;28;65164;-72
2024/02/08 14:18:48;;;;;;;3.43;1.37;;;;;;;;;;5022453;28;58535;-74
2024/02/08 14:21:19;;;;;;;5.80;1.02;;;;;;;;;;5022857;28;58867;-76
2024/02/08 14:23:48;;;;;;;2.15;1.27;;;;;;;;;;5023049;28;58636;-71
2024/02/08 14:28:42;;;;;;;;;;;;;;;;;;5022591;28;58898;-70
2024/02/08 14:31:11;;;;;;;4.18;1.23;;;;;;;;;;5023008;28;58420;-71
2024/02/08 14:33:36;;;;;;;;;;;;;;;;;;5022201;28;59247;-71
2024/02/08 14:36:09;;;;;;;3.20;1.00;;;;;;;;;;5022633;28;58751;-71
2024/02/08 14:38:35;;;;;;;4.40;1.70;;;;;;;;;;5023853;28;58516;-71
2024/02/08 14:41:00;;;;;;;1.88;1.13;;;;;;;;;;5025055;28;59560;-71
2024/02/08 14:43:25;;;;;;;5.67;1.47;;;;;;;;;;5023308;28;58414;-71
2024/02/08 14:45:53;;;;;;;2.67;1.20;;;;;;;;;;5022004;28;58789;-71
2024/02/08 14:48:22;;;;;;;9.85;1.10;;;;;;;;;;5021861;28;59008;-70
2024/02/08 14:50:52;;;;;;;1.33;0.98;;;;;;;;;;5021022;28;59243;-70
2024/02/08 14:53:18;;;;;;;4.55;1.15;;;;;;;;;;5023802;28;60364;-71
2024/02/08 14:55:45;;;;;;;4.55;1.60;;;;;;;;;;5023877;28;58832;-70
2024/02/08 14:58:31;;;;;;;3.70;1.40;;;;;;;;;;5022748;28;58296;-71
2024/02/08 15:00:57;;;;;;;1.20;1.00;;;;;;;;;;5019838;28;58933;-71
2024/02/08 15:03:27;;;;;;;1.83;1.05;;;;;;;;;;5022105;28;58625;-71
2024/02/08 15:06:05;;;;;;;2.70;1.20;;;;;;;;;;5022420;28;59625;-71
2024/02/08 15:08:30;;;;;;;1.25;1.05;;;;;;;;;;5006444;28;61196;-72
2024/02/08 15:11:38;;;;;;;2.77;1.03;;;;;;;;;;5023074;28;58351;-71
2024/02/08 15:13:56;;;;;;;3.65;1.95;;;;;;;;;;5023015;28;58509;-70
2024/02/08 15:16:21;;;;;;;3.53;1.50;;;;;;;;;;5023496;28;58912;-71
2024/02/08 15:18:53;;;;;;;2.07;1.10;;;;;;;;;;5027477;28;58465;-72
2024/02/08 15:21:23;;;;;;;4.25;1.67;;;;;;;;;;5026176;28;59574;-72
2024/02/08 15:24:18;;;;;;;4.57;0.98;;;;;;;;;;5025817;28;58747;-71
2024/02/08 15:26:38;;;;;;;4.20;1.35;;;;;;;;;;5023424;28;59638;-71
2024/02/08 15:29:09;;;;;;;3.65;1.23;;;;;;;;;;5025995;28;58898;-73
2024/02/08 15:31:45;;;;;;;6.68;1.85;;;;;;;;;;5023748;28;58352;-73
2024/02/08 15:39:56;;;;;;;3.25;1.70;;;;;;;;;;5027259;28;58455;-71
2024/02/08 15:42:17;;;;;;;5.05;1.20;;;;;;;;;;5025242;28;58992;-70
2024/02/08 15:44:52;;;;;;;1.50;0.88;;;;;;;;;;5026305;28;58974;-71
2024/02/08 15:47:18;;;;;;;4.93;1.50;;;;;;;;;;5027465;28;58545;-71
2024/02/08 15:49:55;;;;;;;2.78;1.58;;;;;;;;;;5027571;28;59158;-70
2024/02/08 15:52:28;;;;;;;3.20;1.20;;;;;;;;;;5026772;28;58528;-71
2024/02/08 15:54:58;;;;;;;1.77;1.15;;;;;;;;;;5027378;28;60329;-70
2024/02/08 15:57:32;;;;;;;3.03;1.45;;;;;;;;;;5025028;28;59233;-71
2024/02/08 15:59:59;;;;;;;4.43;1.30;;;;;;;;;;5026362;28;58461;-71
2024/02/08 16:02:25;;;;;;;3.30;1.20;;;;;;;;;;5024819;28;59363;-71
2024/02/08 16:04:50;;;;;;;4.83;1.73;;;;;;;;;;5022871;28;58331;-71
2024/02/08 16:07:16;;;;;;;4.97;1.50;;;;;;;;;;5026553;28;58443;-71
2024/02/08 16:09:49;;;;;;;4.32;1.65;;;;;;;;;;5027417;28;59457;-70
2024/02/08 16:14:48;;;;;;;4.88;1.30;;;;;;;;;;5023975;28;58593;-71
2024/02/08 16:17:36;;;;;;;3.17;1.60;;;;;;;;;;5021668;28;58905;-70
2024/02/08 16:22:52;;;;;;;3.38;1.08;;;;;;;;;;5024399;28;58508;-70
2024/02/08 16:25:20;;;;;;;3.17;1.23;;;;;;;;;;5022470;28;63295;-70
2024/02/08 16:27:48;;;;;;;2.08;0.90;;;;;;;;;;5023938;28;58392;-70
2024/02/08 16:30:28;;;;;;;4.13;1.40;;;;;;;;;;5023477;28;60562;-70
2024/02/08 16:32:56;;;;;;;3.70;1.00;;;;;;;;;;5025459;28;59019;-70
2024/02/08 16:35:41;;;;;;;;;;;;;;;;;;5025822;28;59446;-70
2024/02/08 16:38:08;;;;;;;7.28;1.10;;;;;;;;;;5022874;28;59158;-70
2024/02/08 16:40:43;;;;;;;2.55;0.90;;;;;;;;;;5024992;28;58524;-70
2024/02/08 16:43:12;;;;;;;6.32;2.17;;;;;;;;;;5022073;28;59567;-70
2024/02/08 16:45:44;;;;;;;6.50;2.05;;;;;;;;;;5022201;28;59027;-70
2024/02/08 16:48:14;;;;;;;3.78;1.67;;;;;;;;;;5022810;28;58529;-72
2024/02/08 16:50:45;;;;;;;1.25;1.15;;;;;;;;;;5023035;28;59454;-72
2024/02/08 16:53:14;;;;;;;2.92;1.52;;;;;;;;;;5023693;28;58911;-72
2024/02/08 16:55:46;;;;;;;3.50;1.00;;;;;;;;;;5025267;28;58544;-72
2024/02/08 16:58:19;;;;;;;2.17;0.85;;;;;;;;;;5022997;28;59372;-72
2024/02/08 17:00:48;;;;;;;1.20;0.80;;;;;;;;;;5022345;28;58433;-72
2024/02/08 17:06:11;;;;;;;2.67;1.30;;;;;;;;;;5022357;28;58452;-72
2024/02/08 17:08:50;;;;;;;5.53;1.05;;;;;;;;;;5021160;28;58436;-72
2024/02/08 17:11:15;;;;;;;1.88;1.40;;;;;;;;;;5020162;28;60241;-72
2024/02/08 17:13:50;;;;;;;2.92;0.93;;;;;;;;;;5022855;28;59940;-72
2024/02/08 17:16:25;;;;;;;2.75;1.00;;;;;;;;;;5026633;28;58462;-71
2024/02/08 17:19:21;;;;;;;4.18;1.08;;;;;;;;;;5023481;28;59296;-72